Time;durP1;ratioP1;P1;durP2;ratioP2;P2;SDS_P1;SDS_P2;PMS_P1;PMS_P2;Temp;Humidity;BMP_temperature;BMP_pressure;BME280_temperature;BME280_humidity;BME280_pressure;Samples;Min_cycle;Max_cycle;Signal;HPM_P1;HPM_P2
2022/08/17 05:00:18;;;;;;;6.50;6.00;;;20.90;97.20;;;;;;1733794;28;20187;-75
2022/08/17 05:01:09;;;;;;;7.40;6.78;;;20.90;97.20;;;;;;1734062;28;20207;-75
2022/08/17 05:02:01;;;;;;;11.10;7.03;;;20.90;97.20;;;;;;1733622;28;20238;-75
2022/08/17 05:02:54;;;;;;;7.78;7.15;;;20.90;97.20;;;;;;1733795;28;20450;-75
2022/08/17 05:03:46;;;;;;;7.95;7.22;;;20.90;97.20;;;;;;1733830;28;20195;-75
2022/08/17 05:04:40;;;;;;;7.63;6.85;;;20.90;97.20;;;;;;1733898;28;20204;-75
2022/08/17 05:05:35;;;;;;;7.32;6.70;;;20.90;97.20;;;;;;1733910;28;20208;-75
2022/08/17 05:06:27;;;;;;;7.10;6.45;;;20.90;97.20;;;;;;1733890;28;20200;-75
2022/08/17 05:07:19;;;;;;;7.18;6.60;;;20.90;97.20;;;;;;1733478;28;20192;-75
2022/08/17 05:08:10;;;;;;;6.93;6.43;;;20.90;97.20;;;;;;1733827;28;20223;-75
2022/08/17 05:09:02;;;;;;;6.80;6.20;;;20.90;97.20;;;;;;1733857;28;20287;-76
2022/08/17 05:09:53;;;;;;;6.95;6.45;;;21.00;97.20;;;;;;1734079;28;20223;-76
2022/08/17 05:10:45;;;;;;;7.10;6.60;;;21.00;97.20;;;;;;1734012;28;20239;-75
2022/08/17 05:11:36;;;;;;;6.80;6.35;;;21.00;97.20;;;;;;1733782;28;20211;-74
2022/08/17 05:12:28;;;;;;;6.82;6.32;;;21.00;97.20;;;;;;1734056;28;20207;-74
2022/08/17 05:13:21;;;;;;;6.57;6.03;;;21.00;97.20;;;;;;1734034;28;20208;-74
2022/08/17 05:14:13;;;;;;;7.78;7.07;;;21.10;97.20;;;;;;1734178;28;20192;-75
2022/08/17 05:15:09;;;;;;;7.20;6.70;;;21.10;97.20;;;;;;1734036;28;20229;-75
2022/08/17 05:16:04;;;;;;;7.43;6.72;;;21.10;97.20;;;;;;1734170;28;20236;-75
2022/08/17 05:16:55;;;;;;;7.55;6.85;;;21.10;97.20;;;;;;1734138;28;20200;-75
2022/08/17 05:17:47;;;;;;;6.97;6.30;;;21.10;97.20;;;;;;1734070;28;20299;-75
2022/08/17 05:18:37;;;;;;;7.25;6.53;;;21.10;97.20;;;;;;1733518;28;20200;-75
2022/08/17 05:19:29;;;;;;;7.27;6.67;;;21.10;97.20;;;;;;1734033;28;20375;-75
2022/08/17 05:20:21;;;;;;;6.70;6.28;;;21.10;97.20;;;;;;1733563;28;20470;-75
2022/08/17 05:21:13;;;;;;;7.18;6.60;;;21.10;97.20;;;;;;1734040;28;20200;-75
2022/08/17 05:22:04;;;;;;;7.05;6.50;;;21.10;97.20;;;;;;1734093;28;20207;-76
2022/08/17 05:22:59;;;;;;;6.95;6.45;;;21.20;97.20;;;;;;1733968;28;20227;-75
2022/08/17 05:23:50;;;;;;;7.50;6.90;;;21.20;97.20;;;;;;1733680;28;20204;-75
2022/08/17 05:24:41;;;;;;;7.10;6.55;;;21.20;97.20;;;;;;1731566;28;20283;-75
2022/08/17 05:25:34;;;;;;;6.78;6.18;;;21.20;97.20;;;;;;1733953;28;20655;-76
2022/08/17 05:26:27;;;;;;;6.88;6.30;;;21.20;97.20;;;;;;1727313;28;20259;-75
2022/08/17 05:27:18;;;;;;;7.30;6.80;;;21.20;97.20;;;;;;1727312;28;20205;-77
2022/08/17 05:28:10;;;;;;;6.80;6.20;;;21.20;97.20;;;;;;1727555;28;20225;-77
2022/08/17 05:29:01;;;;;;;7.63;7.03;;;21.20;97.20;;;;;;1727176;28;20446;-77
2022/08/17 05:29:52;;;;;;;6.97;6.45;;;21.20;97.20;;;;;;1727479;28;20212;-77
2022/08/17 05:30:45;;;;;;;7.82;7.00;;;21.20;97.20;;;;;;1727209;28;20223;-77
2022/08/17 05:31:37;;;;;;;7.45;6.82;;;21.20;97.20;;;;;;1727006;28;20205;-77
2022/08/17 05:32:29;;;;;;;7.80;7.10;;;21.20;97.20;;;;;;1728124;28;20273;-76
2022/08/17 05:33:22;;;;;;;7.00;6.40;;;21.20;97.20;;;;;;1734033;28;20573;-76
2022/08/17 05:34:14;;;;;;;7.35;6.75;;;21.20;97.20;;;;;;1734390;28;20199;-76
2022/08/17 05:35:07;;;;;;;7.32;6.72;;;21.20;97.20;;;;;;1732816;28;20666;-76
2022/08/17 05:35:59;;;;;;;6.68;6.10;;;21.30;97.20;;;;;;1734912;28;20199;-75
2022/08/17 05:36:50;;;;;;;6.68;6.07;;;21.30;97.20;;;;;;1732652;28;20631;-75
2022/08/17 05:37:42;;;;;;;7.43;6.73;;;21.30;97.20;;;;;;1734919;28;20558;-75
2022/08/17 05:38:32;;;;;;;7.45;6.85;;;21.30;97.20;;;;;;1734938;28;20204;-75
2022/08/17 05:39:24;;;;;;;7.80;6.83;;;21.30;97.20;;;;;;1734906;28;20274;-76
2022/08/17 05:40:15;;;;;;;7.30;6.60;;;21.30;97.20;;;;;;1734887;28;20204;-76
2022/08/17 05:41:08;;;;;;;7.50;6.80;;;21.30;97.20;;;;;;1735299;28;20678;-76
2022/08/17 05:42:02;;;;;;;7.68;6.72;;;21.40;97.20;;;;;;1734907;28;20208;-75
2022/08/17 05:43:03;;;;;;;7.15;6.57;;;21.40;97.20;;;;;;1735290;28;20203;-76
2022/08/17 05:43:55;;;;;;;7.93;7.05;;;21.40;97.20;;;;;;1735366;28;20207;-75
2022/08/17 05:44:46;;;;;;;7.13;6.57;;;21.40;97.20;;;;;;1734935;28;20199;-77
2022/08/17 05:45:40;;;;;;;7.13;6.63;;;21.40;97.20;;;;;;1734704;28;20282;-76
2022/08/17 05:46:34;;;;;;;6.45;5.95;;;21.50;97.20;;;;;;1735265;28;20204;-76
2022/08/17 05:47:29;;;;;;;7.57;6.95;;;21.50;97.20;;;;;;1735047;28;20199;-76
2022/08/17 05:48:20;;;;;;;6.75;6.15;;;21.50;97.20;;;;;;1735137;28;20216;-77
2022/08/17 05:49:14;;;;;;;7.95;6.57;;;21.60;97.20;;;;;;1735357;28;20199;-76
2022/08/17 05:50:06;;;;;;;7.40;6.80;;;21.60;97.20;;;;;;1735155;28;20211;-76
2022/08/17 05:51:09;;;;;;;7.53;6.82;;;21.70;97.20;;;;;;1735053;28;20238;-76
2022/08/17 05:52:15;;;;;;;6.93;6.22;;;21.70;97.20;;;;;;1734949;28;20199;-77
2022/08/17 05:53:16;;;;;;;7.07;6.57;;;21.80;97.20;;;;;;1734840;28;20196;-76
2022/08/17 05:54:22;;;;;;;7.03;6.50;;;21.90;97.20;;;;;;1735072;28;20650;-76
2022/08/17 05:55:22;;;;;;;6.40;6.00;;;21.90;97.20;;;;;;1735194;28;20559;-76
2022/08/17 05:56:26;;;;;;;6.82;6.32;;;22.00;97.20;;;;;;1735303;28;20591;-76
2022/08/17 05:57:39;;;;;;;6.90;6.40;;;22.00;97.20;;;;;;1735095;28;20250;-76
2022/08/17 05:58:39;;;;;;;7.00;6.50;;;22.00;97.20;;;;;;1735334;28;20200;-76
2022/08/17 05:59:41;;;;;;;6.60;6.13;;;22.00;97.20;;;;;;1735379;28;20268;-76
2022/08/17 06:00:42;;;;;;;7.32;6.82;;;22.10;97.20;;;;;;1735032;28;20240;-76
2022/08/17 06:01:46;;;;;;;6.57;5.95;;;22.10;97.20;;;;;;1734941;28;20207;-76
2022/08/17 06:02:53;;;;;;;7.25;6.63;;;22.10;97.20;;;;;;1734833;28;20203;-76
2022/08/17 06:03:53;;;;;;;7.40;6.68;;;22.10;97.20;;;;;;1732197;28;20196;-76
2022/08/17 06:05:05;;;;;;;6.95;6.35;;;22.10;97.20;;;;;;1731674;28;20673;-76
2022/08/17 06:06:07;;;;;;;7.30;6.68;;;22.10;97.20;;;;;;1732967;28;20200;-76
2022/08/17 06:07:11;;;;;;;7.15;6.55;;;22.10;97.20;;;;;;1733160;28;20222;-76
2022/08/17 06:08:11;;;;;;;6.35;5.85;;;22.10;97.20;;;;;;1734590;28;20215;-76
2022/08/17 06:09:17;;;;;;;6.85;6.25;;;22.10;97.20;;;;;;1734705;28;20200;-76
2022/08/17 06:10:14;;;;;;;7.53;6.82;;;22.10;97.20;;;;;;1728136;28;20601;-76
2022/08/17 06:11:16;;;;;;;7.38;6.68;;;22.20;97.20;;;;;;1734781;28;20574;-76
2022/08/17 06:12:37;;;;;;;7.13;6.43;;;22.20;97.20;;;;;;1730839;28;20618;-76
2022/08/17 06:13:46;;;;;;;7.93;7.32;;;22.20;97.20;;;;;;1728394;28;20212;-76
2022/08/17 06:14:55;;;;;;;7.25;6.65;;;22.20;97.20;;;;;;1731554;28;20192;-76
2022/08/17 06:15:57;;;;;;;6.35;5.85;;;22.20;97.20;;;;;;1728128;28;20215;-76
2022/08/17 06:16:54;;;;;;;6.60;6.00;;;22.30;97.20;;;;;;1728054;28;20288;-76
2022/08/17 06:17:51;;;;;;;6.85;6.15;;;22.30;97.20;;;;;;1728162;28;20185;-76
2022/08/17 06:18:50;;;;;;;6.70;6.20;;;22.40;97.20;;;;;;1727961;28;20208;-76
2022/08/17 06:19:44;;;;;;;6.82;6.18;;;22.40;97.20;;;;;;1727930;28;20208;-76
2022/08/17 06:20:44;;;;;;;7.03;5.97;;;22.40;97.20;;;;;;1727865;28;20633;-76
2022/08/17 06:21:39;;;;;;;6.97;6.38;;;22.50;97.20;;;;;;1727860;28;20686;-76
2022/08/17 06:22:35;;;;;;;6.00;5.55;;;22.50;97.20;;;;;;1728043;28;20201;-76
2022/08/17 06:23:33;;;;;;;7.00;6.30;;;22.50;97.20;;;;;;1728037;28;20683;-76
2022/08/17 06:24:28;;;;;;;6.90;6.20;;;22.60;97.20;;;;;;1727990;28;20204;-76
2022/08/17 06:25:28;;;;;;;7.10;6.40;;;22.60;97.20;;;;;;1727905;28;20209;-76
2022/08/17 06:26:24;;;;;;;8.32;7.03;;;22.70;97.20;;;;;;1727991;28;20188;-76
2022/08/17 06:27:21;;;;;;;6.90;6.30;;;22.70;97.20;;;;;;1727954;28;20205;-76
2022/08/17 06:28:17;;;;;;;7.53;6.90;;;22.70;97.20;;;;;;1728551;28;20275;-76
2022/08/17 06:29:19;;;;;;;6.55;6.05;;;22.80;97.20;;;;;;1734876;28;20180;-76
2022/08/17 06:30:14;;;;;;;6.72;6.07;;;22.80;97.20;;;;;;1733536;28;20196;-76
2022/08/17 06:31:11;;;;;;;8.98;6.90;;;22.90;97.20;;;;;;1732570;28;20567;-76
2022/08/17 06:32:04;;;;;;;6.30;5.70;;;22.90;97.20;;;;;;1734278;28;20249;-76
2022/08/17 06:33:04;;;;;;;7.95;6.03;;;22.90;97.20;;;;;;1734393;28;20210;-76
2022/08/17 06:33:58;;;;;;;6.50;6.10;;;22.90;97.20;;;;;;1733544;28;20226;-75
2022/08/17 06:34:50;;;;;;;7.30;6.72;;;23.00;97.20;;;;;;1732881;28;20226;-76
2022/08/17 06:35:49;;;;;;;6.60;6.10;;;23.00;97.20;;;;;;1734631;28;20283;-76
2022/08/17 06:36:52;;;;;;;7.13;6.20;;;23.00;97.20;;;;;;1734666;28;20200;-77
2022/08/17 06:38:00;;;;;;;6.75;6.15;;;23.00;97.20;;;;;;1734677;28;20278;-76
2022/08/17 06:39:00;;;;;;;7.13;6.43;;;23.10;97.20;;;;;;1734873;28;20237;-76
2022/08/17 06:40:02;;;;;;;6.05;5.55;;;23.10;97.20;;;;;;1735042;28;20196;-76
2022/08/17 06:41:00;;;;;;;6.32;5.80;;;23.20;97.20;;;;;;1734662;28;20242;-76
2022/08/17 06:42:04;;;;;;;7.25;6.43;;;23.20;97.20;;;;;;1734284;28;20635;-76
2022/08/17 06:43:05;;;;;;;6.78;6.10;;;23.30;97.20;;;;;;1733733;28;20238;-76
2022/08/17 06:44:09;;;;;;;6.55;6.00;;;23.30;97.20;;;;;;1733228;28;20196;-76
2022/08/17 06:45:06;;;;;;;6.60;6.10;;;23.40;97.20;;;;;;1734442;28;20184;-76
2022/08/17 06:46:05;;;;;;;7.40;6.35;;;23.50;97.20;;;;;;1733761;28;20224;-76
2022/08/17 06:47:04;;;;;;;6.53;5.93;;;23.50;97.20;;;;;;1734736;28;20552;-76
2022/08/17 06:48:04;;;;;;;7.03;6.53;;;23.50;97.20;;;;;;1734290;28;20231;-76
2022/08/17 06:49:13;;;;;;;6.47;5.97;;;23.50;97.20;;;;;;1734733;28;20207;-76
2022/08/17 06:50:13;;;;;;;7.13;6.53;;;23.60;97.20;;;;;;1734629;28;20237;-76
2022/08/17 06:51:14;;;;;;;6.50;6.00;;;23.60;97.20;;;;;;1734771;28;20185;-76
2022/08/17 06:52:13;;;;;;;7.28;6.63;;;23.60;97.20;;;;;;1734647;28;20215;-76
2022/08/17 06:53:20;;;;;;;7.10;6.47;;;23.60;97.20;;;;;;1734537;28;20227;-76
2022/08/17 06:54:16;;;;;;;6.55;6.05;;;23.60;97.20;;;;;;1734663;28;20241;-76
2022/08/17 06:55:11;;;;;;;6.75;6.15;;;23.60;97.20;;;;;;1734659;28;20184;-76
2022/08/17 06:56:06;;;;;;;7.38;6.60;;;23.60;97.20;;;;;;1734444;28;20226;-76
2022/08/17 06:57:05;;;;;;;7.32;6.13;;;23.60;97.20;;;;;;1734584;28;20223;-76
2022/08/17 06:58:00;;;;;;;7.40;6.80;;;23.70;97.20;;;;;;1734547;28;20204;-75
2022/08/17 06:58:57;;;;;;;6.80;6.20;;;23.70;97.20;;;;;;1734764;28;20238;-76
2022/08/17 06:59:52;;;;;;;7.20;6.57;;;23.70;97.20;;;;;;1734742;28;20207;-77
2022/08/17 07:00:47;;;;;;;11.05;6.22;;;23.70;97.20;;;;;;1734387;28;20896;-76
2022/08/17 07:01:40;;;;;;;6.80;6.20;;;23.70;97.20;;;;;;1732806;28;20196;-76
2022/08/17 07:02:45;;;;;;;6.85;6.25;;;23.70;97.20;;;;;;1734405;28;20223;-76
2022/08/17 07:03:41;;;;;;;7.30;6.70;;;23.80;97.20;;;;;;1734574;28;20287;-77
2022/08/17 07:04:35;;;;;;;7.43;6.70;;;23.80;97.20;;;;;;1734595;28;20246;-76
2022/08/17 07:05:38;;;;;;;6.93;6.32;;;23.80;97.20;;;;;;1734502;28;20204;-76
2022/08/17 07:06:37;;;;;;;6.85;6.25;;;23.80;97.20;;;;;;1734542;28;20188;-76
2022/08/17 07:08:49;;;;;;;7.05;6.45;;;23.90;97.20;;;;;;1734506;28;20265;-77
2022/08/17 07:09:39;;;;;;;6.70;6.20;;;23.90;97.20;;;;;;1734511;28;20204;-76
2022/08/17 07:10:37;;;;;;;6.97;6.37;;;23.90;97.20;;;;;;1734501;28;20234;-76
2022/08/17 07:11:35;;;;;;;6.10;5.60;;;23.90;97.20;;;;;;1734244;28;20204;-76
2022/08/17 07:12:36;;;;;;;6.10;5.70;;;24.00;97.20;;;;;;1734542;28;20574;-76
2022/08/17 07:13:40;;;;;;;6.55;6.05;;;24.00;97.20;;;;;;1734607;28;20702;-76
2022/08/17 07:14:40;;;;;;;5.70;5.20;;;24.10;97.20;;;;;;1734527;28;20200;-76
2022/08/17 07:15:41;;;;;;;6.60;6.00;;;24.10;97.20;;;;;;1734488;28;20573;-76
2022/08/17 07:16:38;;;;;;;6.68;6.07;;;24.10;97.20;;;;;;1734555;28;20211;-76
2022/08/17 07:17:29;;;;;;;5.88;5.38;;;24.20;97.20;;;;;;1734335;28;20203;-76
2022/08/17 07:18:23;;;;;;;6.90;6.30;;;24.20;97.20;;;;;;1734276;28;20283;-76
2022/08/17 07:19:17;;;;;;;6.35;5.85;;;24.30;97.20;;;;;;1734456;28;20458;-76
2022/08/17 07:20:13;;;;;;;8.02;6.15;;;24.30;97.20;;;;;;1734111;28;20200;-76
2022/08/17 07:21:15;;;;;;;6.53;5.93;;;24.40;97.20;;;;;;1734422;28;20200;-76
2022/08/17 07:22:17;;;;;;;7.22;6.53;;;24.50;97.20;;;;;;1734336;28;20192;-76
2022/08/17 07:23:14;;;;;;;7.47;5.82;;;24.50;97.20;;;;;;1734382;28;20655;-76
2022/08/17 07:24:34;;;;;;;6.47;5.88;;;24.60;97.20;;;;;;1734394;28;20206;-76
2022/08/17 07:25:25;;;;;;;7.78;6.03;;;24.70;97.20;;;;;;1725188;28;20569;-76
2022/08/17 07:26:16;;;;;;;7.17;6.57;;;24.80;97.20;;;;;;1734395;28;20637;-76
2022/08/17 07:27:13;;;;;;;8.30;6.22;;;24.80;97.20;;;;;;1734348;28;20204;-76
2022/08/17 07:28:06;;;;;;;7.70;6.00;;;24.90;97.20;;;;;;1734402;28;20196;-76
2022/08/17 07:28:59;;;;;;;9.60;6.10;;;24.90;97.20;;;;;;1734244;28;20310;-76
2022/08/17 07:29:55;;;;;;;7.32;6.10;;;25.00;97.20;;;;;;1733813;28;20615;-76
2022/08/17 07:30:50;;;;;;;6.38;5.75;;;25.00;97.20;;;;;;1734331;28;20220;-76
2022/08/17 07:31:42;;;;;;;6.45;5.85;;;25.10;97.20;;;;;;1733783;28;20207;-76
2022/08/17 07:32:35;;;;;;;8.15;6.28;;;25.20;97.20;;;;;;1734307;28;20200;-76
2022/08/17 07:33:29;;;;;;;7.37;6.73;;;25.20;97.20;;;;;;1734379;28;20200;-76
2022/08/17 07:34:21;;;;;;;7.03;6.40;;;25.30;97.20;;;;;;1734224;28;20450;-76
2022/08/17 07:35:17;;;;;;;6.72;6.03;;;25.30;97.20;;;;;;1734291;28;20442;-76
2022/08/17 07:36:23;;;;;;;7.55;6.05;;;25.40;97.20;;;;;;1734434;28;20200;-76
2022/08/17 07:37:19;;;;;;;7.28;6.10;;;25.40;97.20;;;;;;1734330;28;20232;-76
2022/08/17 07:38:13;;;;;;;5.82;5.32;;;25.50;97.20;;;;;;1734431;28;20207;-77
2022/08/17 07:39:04;;;;;;;6.57;5.80;;;25.50;97.20;;;;;;1734373;28;20203;-76
2022/08/17 07:39:56;;;;;;;6.50;5.90;;;25.50;97.20;;;;;;1734329;28;20975;-76
2022/08/17 07:41:00;;;;;;;7.57;5.82;;;25.50;97.20;;;;;;1734211;28;20224;-76
2022/08/17 07:42:02;;;;;;;6.30;5.72;;;25.60;97.20;;;;;;1734159;28;20210;-76
2022/08/17 07:43:22;;;;;;;8.73;5.70;;;25.60;97.20;;;;;;1734342;28;20207;-77
2022/08/17 07:44:16;;;;;;;7.35;6.25;;;25.70;97.20;;;;;;1734434;28;20254;-77
2022/08/17 07:48:17;;;;;;;6.28;5.70;;;25.70;97.20;;;;;;1734269;28;20579;-76
2022/08/17 07:48:54;;;;;;;6.65;5.97;;;25.90;97.20;;;;;;1719679;28;20820;-77
2022/08/17 07:49:46;;;;;;;5.95;5.45;;;25.90;97.20;;;;;;1719923;28;20577;-77
2022/08/17 07:50:38;;;;;;;6.07;5.40;;;26.00;97.20;;;;;;1719870;28;20233;-76
2022/08/17 07:51:31;;;;;;;5.90;5.40;;;26.00;97.20;;;;;;1723202;28;20291;-76
2022/08/17 07:52:29;;;;;;;8.00;5.67;;;26.00;97.20;;;;;;1727370;28;20200;-77
2022/08/17 07:53:23;;;;;;;6.32;5.82;;;26.00;97.20;;;;;;1727409;28;20443;-77
2022/08/17 07:54:22;;;;;;;6.20;5.70;;;26.10;97.20;;;;;;1727487;28;20251;-76
2022/08/17 07:55:26;;;;;;;6.53;6.07;;;26.10;97.20;;;;;;1727550;28;20204;-77
2022/08/17 07:56:41;;;;;;;7.37;5.40;;;26.10;97.20;;;;;;1727508;28;20978;-77
2022/08/17 07:57:35;;;;;;;5.67;5.17;;;26.10;97.20;;;;;;1727274;28;20450;-77
2022/08/17 07:58:26;;;;;;;8.17;5.77;;;26.10;97.20;;;;;;1727358;28;20539;-76
2022/08/17 07:59:19;;;;;;;6.70;5.60;;;26.10;97.20;;;;;;1727354;28;20445;-76
2022/08/17 08:00:22;;;;;;;6.28;5.50;;;26.10;97.20;;;;;;1731716;28;20196;-76
2022/08/17 08:01:17;;;;;;;6.83;5.50;;;26.10;97.20;;;;;;1734310;28;20196;-76
2022/08/17 08:02:26;;;;;;;8.00;5.63;;;26.10;97.20;;;;;;1733908;28;20972;-77
2022/08/17 08:03:25;;;;;;;6.50;5.80;;;26.10;97.20;;;;;;1734231;28;20937;-76
2022/08/17 08:04:28;;;;;;;5.72;5.13;;;26.10;97.20;;;;;;1734216;28;20539;-76
2022/08/17 08:05:25;;;;;;;6.00;5.40;;;26.10;97.20;;;;;;1734296;28;20203;-77
2022/08/17 08:06:22;;;;;;;6.00;5.40;;;26.10;97.20;;;;;;1734244;28;20447;-77
2022/08/17 08:07:25;;;;;;;5.50;5.00;;;26.10;97.20;;;;;;1734084;28;20439;-76
2022/08/17 08:08:25;;;;;;;6.13;5.63;;;26.00;97.20;;;;;;1734246;28;20215;-77
2022/08/17 08:09:34;;;;;;;9.40;6.07;;;26.00;97.20;;;;;;1734824;28;20482;-78
2022/08/17 08:10:28;;;;;;;6.70;5.78;;;25.90;97.20;;;;;;1734610;28;20534;-76
2022/08/17 08:11:31;;;;;;;7.43;5.90;;;25.90;97.20;;;;;;1734416;28;20204;-77
2022/08/17 08:12:32;;;;;;;7.13;5.37;;;25.90;97.20;;;;;;1734589;28;20435;-76
2022/08/17 08:13:26;;;;;;;5.97;5.30;;;25.80;97.20;;;;;;1734527;28;20888;-77
2022/08/17 08:14:23;;;;;;;6.60;5.60;;;25.80;97.20;;;;;;1733977;28;20458;-77
2022/08/17 08:15:18;;;;;;;9.00;5.87;;;25.80;97.20;;;;;;1734252;28;20856;-76
2022/08/17 08:16:19;;;;;;;6.43;5.93;;;25.70;97.20;;;;;;1734064;28;20450;-76
2022/08/17 08:17:11;;;;;;;6.67;6.17;;;25.70;97.20;;;;;;1734122;28;20458;-77
2022/08/17 08:18:17;;;;;;;5.77;5.27;;;25.60;97.20;;;;;;1733507;28;20442;-76
2022/08/17 08:19:11;;;;;;;5.87;5.27;;;25.60;97.20;;;;;;1733666;28;20438;-76
2022/08/17 08:20:07;;;;;;;6.47;5.87;;;25.60;97.20;;;;;;1733511;28;20438;-77
2022/08/17 08:21:08;;;;;;;6.30;5.70;;;25.50;97.20;;;;;;1733608;28;20497;-76
2022/08/17 08:22:04;;;;;;;6.60;6.10;;;25.50;97.20;;;;;;1733329;28;20461;-76
2022/08/17 08:23:02;;;;;;;6.57;5.87;;;25.50;97.20;;;;;;1730525;28;20963;-76
2022/08/17 08:23:58;;;;;;;7.07;6.37;;;25.50;97.20;;;;;;1734023;28;20447;-76
2022/08/17 08:25:02;;;;;;;6.20;5.60;;;25.40;97.20;;;;;;1731679;28;20439;-76
2022/08/17 08:26:15;;;;;;;8.60;7.03;;;25.40;97.20;;;;;;1733981;28;20443;-76
2022/08/17 08:27:12;;;;;;;6.70;6.27;;;25.40;97.20;;;;;;1733983;28;20957;-76
2022/08/17 08:28:18;;;;;;;6.90;6.40;;;25.30;97.20;;;;;;1734034;28;20442;-76
2022/08/17 08:29:21;;;;;;;6.50;5.90;;;25.30;97.20;;;;;;1733907;28;20270;-76
2022/08/17 08:30:17;;;;;;;6.87;6.37;;;25.20;97.20;;;;;;1733797;28;20474;-76
2022/08/17 08:31:18;;;;;;;6.80;6.30;;;25.20;97.20;;;;;;1727153;28;20439;-76
2022/08/17 08:32:19;;;;;;;7.77;7.17;;;25.20;97.20;;;;;;1727314;28;21003;-76
2022/08/17 08:33:21;;;;;;;6.68;6.18;;;25.10;97.20;;;;;;1727128;28;20451;-76
2022/08/17 08:34:23;;;;;;;7.13;6.37;;;25.10;97.20;;;;;;1727212;28;20260;-76
2022/08/17 08:35:25;;;;;;;6.13;5.63;;;25.10;97.20;;;;;;1727335;28;20447;-76
2022/08/17 08:36:37;;;;;;;8.57;6.60;;;25.10;97.20;;;;;;1727361;28;20615;-76
2022/08/17 08:37:40;;;;;;;7.40;6.80;;;25.00;97.20;;;;;;1727252;28;20444;-76
2022/08/17 08:38:41;;;;;;;7.23;6.73;;;25.00;97.20;;;;;;1727338;28;20660;-77
2022/08/17 08:39:40;;;;;;;6.80;6.30;;;25.00;97.20;;;;;;1727295;28;20811;-76
2022/08/17 08:40:42;;;;;;;7.10;6.60;;;25.00;97.20;;;;;;1727128;28;20475;-76
2022/08/17 08:41:43;;;;;;;7.13;6.65;;;25.00;97.20;;;;;;1726951;28;20447;-76
2022/08/17 08:42:42;;;;;;;7.40;6.65;;;25.00;97.20;;;;;;1727135;28;21010;-76
2022/08/17 08:43:43;;;;;;;7.07;6.45;;;25.00;97.20;;;;;;1727227;28;20216;-76
2022/08/17 08:44:55;;;;;;;6.60;6.00;;;24.90;97.20;;;;;;1727291;28;20788;-76
2022/08/17 08:45:55;;;;;;;6.53;6.03;;;24.90;97.20;;;;;;1727210;28;20444;-76
2022/08/17 08:47:10;;;;;;;11.07;6.30;;;24.90;97.20;;;;;;1729916;28;20562;-76
2022/08/17 08:48:17;;;;;;;7.00;6.50;;;24.90;97.20;;;;;;1731868;28;20218;-76
2022/08/17 08:49:50;;;;;;;7.55;6.72;;;24.90;97.20;;;;;;1733921;28;20442;-76
2022/08/17 08:50:47;;;;;;;7.82;7.10;;;24.90;97.20;;;;;;1721027;28;20281;-76
2022/08/17 08:51:51;;;;;;;6.50;6.00;;;24.90;97.20;;;;;;1733611;28;20203;-76
2022/08/17 08:52:56;;;;;;;7.75;6.90;;;24.90;97.20;;;;;;1733847;28;20438;-76
2022/08/17 08:53:58;;;;;;;6.90;6.37;;;24.80;97.20;;;;;;1733983;28;20655;-76
2022/08/17 08:54:56;;;;;;;6.95;6.07;;;24.80;97.20;;;;;;1733924;28;20446;-76
2022/08/17 08:55:53;;;;;;;7.45;6.85;;;24.80;97.20;;;;;;1732615;28;20683;-76
2022/08/17 08:56:54;;;;;;;6.60;6.10;;;24.80;97.20;;;;;;1733114;28;20200;-75
2022/08/17 08:57:53;;;;;;;7.20;6.50;;;24.80;97.20;;;;;;1733820;28;20648;-75
2022/08/17 08:58:52;;;;;;;7.50;6.90;;;24.80;97.20;;;;;;1733792;28;20216;-76
2022/08/17 09:00:09;;;;;;;7.43;6.73;;;24.80;97.20;;;;;;1733738;28;20196;-76
2022/08/17 09:01:07;;;;;;;6.43;6.03;;;24.80;97.20;;;;;;1727010;28;20486;-76
2022/08/17 09:02:05;;;;;;;7.05;6.45;;;24.80;97.20;;;;;;1726837;28;20498;-76
2022/08/17 09:03:40;;;;;;;7.70;7.00;;;24.80;97.20;;;;;;1727083;28;20201;-76
2022/08/17 09:04:47;;;;;;;7.30;6.60;;;24.80;97.20;;;;;;1712903;28;20506;-75
2022/08/17 09:05:55;;;;;;;7.40;6.85;;;24.70;97.20;;;;;;1712908;28;20273;-76
2022/08/17 09:06:56;;;;;;;7.55;7.05;;;24.70;97.20;;;;;;1712680;28;20226;-76
2022/08/17 09:07:57;;;;;;;7.63;6.95;;;24.70;97.20;;;;;;1712841;28;20556;-76
2022/08/17 09:09:01;;;;;;;8.82;6.78;;;24.70;97.20;;;;;;1712814;28;20216;-75
2022/08/17 09:10:02;;;;;;;7.50;6.80;;;24.70;97.20;;;;;;1715385;28;20272;-76
2022/08/17 09:11:03;;;;;;;7.30;6.77;;;24.70;97.20;;;;;;1728318;28;20216;-76
2022/08/17 09:12:02;;;;;;;8.00;7.40;;;24.70;97.20;;;;;;1728082;28;20447;-76
2022/08/17 09:13:06;;;;;;;6.70;6.20;;;24.70;97.20;;;;;;1728223;28;20443;-76
2022/08/17 09:14:07;;;;;;;8.43;7.63;;;24.70;97.20;;;;;;1728462;28;20451;-76
2022/08/17 09:15:05;;;;;;;7.40;6.77;;;24.70;97.20;;;;;;1728379;28;20517;-76
2022/08/17 09:15:59;;;;;;;7.47;6.88;;;24.70;97.20;;;;;;1728320;28;20459;-76
2022/08/17 09:17:00;;;;;;;7.70;7.00;;;24.70;97.20;;;;;;1728305;28;20197;-76
2022/08/17 09:18:00;;;;;;;7.63;7.13;;;24.60;97.20;;;;;;1728395;28;20447;-76
2022/08/17 09:18:54;;;;;;;7.20;6.70;;;24.60;97.20;;;;;;1728332;28;20444;-76
2022/08/17 09:19:51;;;;;;;8.30;7.38;;;24.60;97.20;;;;;;1728301;28;20232;-76
2022/08/17 09:20:47;;;;;;;8.70;7.78;;;24.60;97.20;;;;;;1728222;28;20247;-76
2022/08/17 09:21:46;;;;;;;7.60;7.00;;;24.60;97.20;;;;;;1728036;28;20202;-76
2022/08/17 09:22:41;;;;;;;7.75;7.05;;;24.60;97.20;;;;;;1728295;28;20208;-76
2022/08/17 09:23:41;;;;;;;7.80;7.20;;;24.60;97.20;;;;;;1728425;28;20208;-76
2022/08/17 09:24:38;;;;;;;7.40;6.80;;;24.60;97.20;;;;;;1728479;28;20455;-76
2022/08/17 09:25:33;;;;;;;8.90;8.20;;;24.60;97.20;;;;;;1728355;28;20279;-76
2022/08/17 09:26:30;;;;;;;7.82;7.13;;;24.60;97.20;;;;;;1728242;28;20439;-76
2022/08/17 09:27:27;;;;;;;7.90;7.40;;;24.60;97.20;;;;;;1728194;28;20255;-76
2022/08/17 09:28:23;;;;;;;8.07;7.47;;;24.60;97.20;;;;;;1728276;28;20587;-76
2022/08/17 09:29:16;;;;;;;8.23;7.57;;;24.60;97.20;;;;;;1728146;28;20212;-76
2022/08/17 09:30:10;;;;;;;9.38;7.85;;;24.60;97.20;;;;;;1728751;28;20531;-76
2022/08/17 09:31:07;;;;;;;7.97;7.20;;;24.60;97.20;;;;;;1734704;28;20239;-76
2022/08/17 09:32:02;;;;;;;8.23;7.53;;;24.60;97.20;;;;;;1734790;28;20430;-76
2022/08/17 09:32:57;;;;;;;8.60;7.88;;;24.60;97.20;;;;;;1734871;28;20242;-76
2022/08/17 09:33:50;;;;;;;8.20;7.60;;;24.60;97.20;;;;;;1735051;28;20278;-76
2022/08/17 09:34:47;;;;;;;8.20;7.50;;;24.60;97.20;;;;;;1735019;28;20446;-76
2022/08/17 09:35:44;;;;;;;9.00;8.10;;;24.60;97.20;;;;;;1735002;28;20254;-76
2022/08/17 09:36:43;;;;;;;9.05;8.30;;;24.60;97.20;;;;;;1735033;28;20482;-76
2022/08/17 09:37:44;;;;;;;8.57;7.88;;;24.60;97.20;;;;;;1735142;28;20203;-76
2022/08/17 09:38:46;;;;;;;8.20;7.50;;;24.60;97.20;;;;;;1735058;28;20212;-76
2022/08/17 09:39:42;;;;;;;8.77;8.07;;;24.60;97.20;;;;;;1735116;28;20473;-76
2022/08/17 09:40:39;;;;;;;8.35;7.65;;;24.60;97.20;;;;;;1735008;28;20246;-76
2022/08/17 09:41:37;;;;;;;8.25;7.45;;;24.50;97.20;;;;;;1734787;28;20666;-76
2022/08/17 09:42:34;;;;;;;7.93;7.32;;;24.50;97.20;;;;;;1735011;28;20211;-76
2022/08/17 09:43:35;;;;;;;9.45;8.55;;;24.50;97.20;;;;;;1734912;28;20203;-76
2022/08/17 09:44:36;;;;;;;7.60;7.07;;;24.50;97.20;;;;;;1734965;28;20208;-76
2022/08/17 09:45:32;;;;;;;7.57;6.97;;;24.50;97.20;;;;;;1734936;28;20204;-76
2022/08/17 09:46:28;;;;;;;9.07;8.27;;;24.50;97.20;;;;;;1734897;28;20204;-76
2022/08/17 09:47:29;;;;;;;9.15;7.43;;;24.50;97.20;;;;;;1734638;28;20694;-76
2022/08/17 09:48:24;;;;;;;8.03;7.33;;;24.50;97.20;;;;;;1734911;28;20671;-76
2022/08/17 09:49:26;;;;;;;7.93;7.33;;;24.50;97.20;;;;;;1735298;28;20443;-76
2022/08/17 09:50:22;;;;;;;9.75;8.77;;;24.50;97.20;;;;;;1735042;28;20446;-76
2022/08/17 09:51:22;;;;;;;8.15;7.55;;;24.50;97.20;;;;;;1735100;28;20204;-76
2022/08/17 09:52:18;;;;;;;8.60;8.00;;;24.50;97.20;;;;;;1734387;28;20205;-76
2022/08/17 09:53:11;;;;;;;9.73;8.75;;;24.50;97.20;;;;;;1734670;28;20199;-76
2022/08/17 09:54:17;;;;;;;12.87;9.70;;;24.50;97.20;;;;;;1734192;28;20230;-76
2022/08/17 09:55:09;;;;;;;9.47;8.67;;;24.50;97.20;;;;;;1733837;28;20492;-76
2022/08/17 09:56:10;;;;;;;9.63;8.77;;;24.50;97.20;;;;;;1734816;28;20446;-76
2022/08/17 09:57:13;;;;;;;9.03;8.33;;;24.60;97.20;;;;;;1734602;28;20446;-76
2022/08/17 09:58:13;;;;;;;9.60;8.60;;;24.60;97.20;;;;;;1734928;28;20439;-76
2022/08/17 09:59:31;;;;;;;8.80;8.00;;;24.60;97.20;;;;;;1734868;28;20688;-76
2022/08/17 10:00:26;;;;;;;8.45;7.65;;;24.70;97.20;;;;;;1734664;28;20450;-76
2022/08/17 10:01:30;;;;;;;8.18;7.47;;;24.70;97.20;;;;;;1734714;28;20200;-76
2022/08/17 10:02:47;;;;;;;8.10;7.13;;;24.70;97.20;;;;;;1734859;28;20274;-75
2022/08/17 10:04:12;;;;;;;7.45;6.85;;;24.70;97.20;;;;;;1734471;28;20203;-76
2022/08/17 10:05:08;;;;;;;8.17;7.60;;;24.70;97.20;;;;;;1731555;28;20210;-76
2022/08/17 10:06:06;;;;;;;7.50;6.85;;;24.70;97.20;;;;;;1734806;28;20504;-76
2022/08/17 10:07:05;;;;;;;8.80;8.10;;;24.80;97.20;;;;;;1734790;28;20579;-76
2022/08/17 10:08:08;;;;;;;8.00;7.40;;;24.80;97.20;;;;;;1734291;28;20477;-76